Time;durP1;ratioP1;P1;durP2;ratioP2;P2;SDS_P1;SDS_P2;PMS_P1;PMS_P2;Temp;Humidity;BMP_temperature;BMP_pressure;BME280_temperature;BME280_humidity;BME280_pressure;Samples;Min_cycle;Max_cycle;Signal;HPM_P1;HPM_P2
2022/07/03 00:01:26;;;;;;;2.53;0.80;;;;;;;14.20;100.00;100680.81;5097020;28;21651;-90
2022/07/03 00:03:53;;;;;;;1.20;0.90;;;;;;;14.22;100.00;100675.47;5115921;28;20405;-89
2022/07/03 00:06:20;;;;;;;3.20;0.80;;;;;;;14.01;100.00;100670.41;5094919;28;20124;-90
2022/07/03 00:08:47;;;;;;;2.28;0.90;;;;;;;13.56;100.00;100642.91;5086601;28;20054;-89
2022/07/03 00:11:15;;;;;;;1.40;0.70;;;;;;;14.12;100.00;100685.63;5096353;28;20057;-89
2022/07/03 00:13:42;;;;;;;1.58;0.80;;;;;;;13.82;100.00;100659.97;5097828;28;20454;-89
2022/07/03 00:16:09;;;;;;;1.65;0.80;;;;;;;13.75;100.00;100663.88;5097410;28;20051;-90
2022/07/03 00:18:36;;;;;;;1.23;0.90;;;;;;;13.64;100.00;100680.22;5114729;28;20051;-89
2022/07/03 00:21:05;;;;;;;1.70;0.80;;;;;;;13.58;100.00;100653.34;5107874;28;20052;-89
2022/07/03 00:23:55;;;;;;;0.77;0.70;;;;;;;13.85;100.00;100649.28;5095872;28;20130;-89
2022/07/03 00:26:24;;;;;;;2.78;1.02;;;;;;;13.66;100.00;100633.63;5076360;28;20044;-89
2022/07/03 00:28:52;;;;;;;1.70;1.00;;;;;;;13.64;100.00;100634.63;5093391;28;20130;-89
2022/07/03 00:31:19;;;;;;;3.78;0.80;;;;;;;13.96;100.00;100650.50;5096594;28;20051;-89
2022/07/03 00:33:46;;;;;;;0.90;0.68;;;;;;;13.73;100.00;100623.63;5114297;28;20054;-90
2022/07/03 00:36:13;;;;;;;1.75;0.90;;;;;;;13.86;100.00;100651.00;5076628;28;20139;-88
2022/07/03 00:38:40;;;;;;;2.10;0.90;;;;;;;13.89;100.00;100651.78;5090195;28;20044;-89
2022/07/03 00:41:07;;;;;;;1.58;0.70;;;;;;;13.80;100.00;100632.06;5100256;28;20728;-89
2022/07/03 00:43:34;;;;;;;1.45;0.80;;;;;;;13.88;100.00;100658.78;5102636;28;20134;-89
2022/07/03 00:46:08;;;;;;;1.15;0.77;;;;;;;13.96;100.00;100651.34;5080344;28;20069;-89
2022/07/03 00:48:38;;;;;;;1.13;0.70;;;;;;;13.92;100.00;100620.03;5096776;28;20048;-90
2022/07/03 00:51:07;;;;;;;1.58;0.80;;;;;;;14.28;100.00;100663.75;5082660;28;20050;-89
2022/07/03 00:53:36;;;;;;;1.52;0.80;;;;;;;14.28;100.00;100658.47;5086656;28;20478;-89
2022/07/03 00:56:05;;;;;;;1.80;0.80;;;;;;;14.14;100.00;100632.88;5096301;28;20057;-89
2022/07/03 00:58:34;;;;;;;1.95;0.85;;;;;;;14.42;100.00;100667.31;5087508;28;20050;-88
2022/07/03 01:01:01;;;;;;;0.90;0.70;;;;;;;14.28;100.00;100671.63;5090489;28;20064;-89
2022/07/03 01:03:34;;;;;;;0.77;0.70;;;;;;;14.21;100.00;100650.88;5087789;28;20052;-89
2022/07/03 01:06:12;;;;;;;0.70;0.70;;;;;;;14.17;100.00;100628.31;5091269;28;20105;-89
2022/07/03 01:08:50;;;;;;;1.55;0.80;;;;;;;14.55;100.00;100682.44;5114909;28;20055;-89
2022/07/03 01:11:36;;;;;;;2.60;0.70;;;;;;;14.54;100.00;100678.13;5095716;28;20674;-89
2022/07/03 01:14:27;;;;;;;2.13;0.80;;;;;;;14.44;100.00;100672.50;5096258;28;20058;-87
2022/07/03 01:17:11;;;;;;;1.95;0.80;;;;;;;14.29;100.00;100674.19;5108488;28;20054;-89
2022/07/03 01:19:41;;;;;;;1.55;0.80;;;;;;;14.09;100.00;100674.41;5113841;28;20071;-89
2022/07/03 01:22:37;;;;;;;1.60;0.80;;;;;;;14.03;100.00;100680.84;5089123;28;20106;-89
2022/07/03 01:25:12;;;;;;;1.13;0.80;;;;;;;14.18;100.00;100669.50;5089315;28;20083;-89
2022/07/03 01:27:54;;;;;;;2.17;0.80;;;;;;;14.29;100.00;100675.97;5100898;28;20053;-89
2022/07/03 01:30:23;;;;;;;1.85;0.90;;;;;;;14.20;100.00;100658.88;5095000;28;20055;-89
2022/07/03 01:33:03;;;;;;;0.85;0.75;;;;;;;14.18;100.00;100673.91;5081711;28;20052;-89
2022/07/03 01:35:39;;;;;;;2.97;0.77;;;;;;;14.09;100.00;100653.34;5076508;28;20066;-89
2022/07/03 01:38:10;;;;;;;1.73;0.85;;;;;;;14.10;100.00;100647.16;5095921;28;20628;-89
2022/07/03 01:40:39;;;;;;;1.67;0.80;;;;;;;13.66;100.00;100606.47;5094945;28;20055;-89
2022/07/03 01:43:11;;;;;;;1.15;0.80;;;;;;;13.95;100.00;100661.97;5107811;28;20047;-89
2022/07/03 01:45:43;;;;;;;1.08;0.73;;;;;;;13.69;100.00;100656.31;5082173;28;20126;-89
2022/07/03 01:48:11;;;;;;;1.38;0.90;;;;;;;13.43;100.00;100616.41;5083789;28;20056;-89
2022/07/03 01:50:40;;;;;;;1.02;0.77;;;;;;;13.59;100.00;100652.44;5088282;28;20044;-89
2022/07/03 01:53:09;;;;;;;1.75;0.80;;;;;;;13.42;100.00;100672.56;5125153;27;20054;-89
2022/07/03 01:55:39;;;;;;;1.20;0.65;;;;;;;13.09;100.00;100646.16;5089261;28;20052;-89
2022/07/03 01:58:07;;;;;;;0.85;0.70;;;;;;;13.32;100.00;100652.91;5106068;28;20049;-89
2022/07/03 02:00:41;;;;;;;1.13;0.80;;;;;;;13.58;100.00;100670.00;5090135;28;20052;-88
2022/07/03 02:03:08;;;;;;;1.60;0.70;;;;;;;13.60;100.00;100648.88;5091152;28;20073;-86
2022/07/03 02:05:44;;;;;;;1.48;0.80;;;;;;;13.52;100.00;100658.94;5094615;28;20066;-89
2022/07/03 02:08:14;;;;;;;1.92;0.80;;;;;;;13.57;100.00;100688.50;5094823;28;20134;-88
2022/07/03 02:10:51;;;;;;;1.10;0.80;;;;;;;13.46;100.00;100645.19;5091296;28;20039;-89
2022/07/03 02:13:28;;;;;;;2.53;0.80;;;;;;;13.47;100.00;100646.00;5094460;28;20047;-89
2022/07/03 02:15:58;;;;;;;0.88;0.70;;;;;;;13.53;100.00;100643.09;5077436;28;20048;-89
2022/07/03 02:18:35;;;;;;;2.58;0.80;;;;;;;13.62;100.00;100666.28;5094393;28;20051;-89
2022/07/03 02:21:15;;;;;;;0.70;0.70;;;;;;;13.54;100.00;100660.56;5080187;28;20053;-89
2022/07/03 02:23:59;;;;;;;1.20;0.70;;;;;;;13.57;100.00;100677.97;5087537;28;20048;-89
2022/07/03 02:26:35;;;;;;;1.83;0.90;;;;;;;13.13;100.00;100658.19;5082138;28;20408;-89
2022/07/03 02:29:13;;;;;;;1.70;0.80;;;;;;;12.75;100.00;100645.16;5094860;28;20059;-89
2022/07/03 02:31:46;;;;;;;2.40;0.90;;;;;;;12.63;100.00;100664.97;5090540;28;20405;-88
2022/07/03 02:34:17;;;;;;;1.85;0.90;;;;;;;12.52;100.00;100654.16;5094647;28;20051;-89
2022/07/03 02:36:50;;;;;;;2.00;0.90;;;;;;;12.58;100.00;100648.59;5094488;28;20478;-88
2022/07/03 02:39:40;;;;;;;;;;;;;;;13.22;100.00;100688.44;5100463;28;20055;-89
2022/07/03 02:42:22;;;;;;;1.48;0.70;;;;;;;13.29;100.00;100700.34;5094714;28;19963;-89
2022/07/03 02:44:52;;;;;;;3.42;1.00;;;;;;;12.93;100.00;100677.59;5090700;28;20044;-89
2022/07/03 02:47:28;;;;;;;1.02;0.80;;;;;;;13.06;100.00;100685.72;5085708;28;20055;-89
2022/07/03 02:50:00;;;;;;;2.10;1.00;;;;;;;12.96;100.00;100692.34;5112868;28;20473;-89
2022/07/03 02:52:32;;;;;;;1.15;0.85;;;;;;;12.97;100.00;100688.81;5093880;28;20126;-90
2022/07/03 02:55:05;;;;;;;2.97;1.10;;;;;;;12.82;100.00;100700.88;5110057;28;20048;-89
2022/07/03 02:57:40;;;;;;;2.67;0.90;;;;;;;12.81;100.00;100696.56;5102741;28;20043;-88
2022/07/03 03:00:10;;;;;;;3.00;1.23;;;;;;;12.67;100.00;100695.44;5090984;28;20405;-89
2022/07/03 03:02:56;;;;;;;2.15;1.00;;;;;;;12.82;100.00;100688.63;5086103;28;20048;-89
2022/07/03 03:05:49;;;;;;;2.45;0.95;;;;;;;12.67;100.00;100684.06;5095525;28;20134;-89
2022/07/03 03:08:19;;;;;;;1.52;0.80;;;;;;;12.75;100.00;100691.59;5096293;28;20048;-89
2022/07/03 03:10:48;;;;;;;1.67;1.00;;;;;;;12.57;100.00;100678.41;5093393;28;20096;-89
2022/07/03 03:13:19;;;;;;;1.30;0.90;;;;;;;12.65;100.00;100680.69;5084363;28;20058;-89
2022/07/03 03:16:06;;;;;;;2.90;0.98;;;;;;;12.55;100.00;100653.97;5091779;28;20393;-89
2022/07/03 03:18:41;;;;;;;1.15;0.80;;;;;;;12.41;100.00;100633.66;5093150;28;20176;-89
2022/07/03 03:21:09;;;;;;;2.30;1.00;;;;;;;12.70;100.00;100671.66;5097865;28;20052;-88
2022/07/03 03:23:48;;;;;;;1.75;0.85;;;;;;;13.05;100.00;100694.50;5101990;28;20074;-89
2022/07/03 03:26:28;;;;;;;1.50;0.80;;;;;;;13.15;100.00;100694.94;5098496;28;20051;-89
2022/07/03 03:28:55;;;;;;;2.00;0.90;;;;;;;13.29;100.00;100697.72;5097920;28;20039;-89
2022/07/03 03:31:22;;;;;;;2.20;0.88;;;;;;;13.15;100.00;100658.97;5115086;28;20046;-88
2022/07/03 03:33:50;;;;;;;1.40;0.88;;;;;;;13.02;100.00;100676.28;5098219;28;20143;-89
2022/07/03 03:36:19;;;;;;;1.63;0.80;;;;;;;13.39;100.00;100698.16;5098252;28;20492;-89
2022/07/03 03:38:47;;;;;;;2.20;0.90;;;;;;;13.15;100.00;100677.38;5098453;28;20541;-89
2022/07/03 03:41:14;;;;;;;2.97;1.00;;;;;;;13.23;100.00;100666.50;5083058;28;20043;-89
2022/07/03 03:43:44;;;;;;;1.40;0.80;;;;;;;13.05;100.00;100649.84;5116463;28;20048;-89
2022/07/03 03:46:11;;;;;;;2.45;0.98;;;;;;;13.22;100.00;100678.78;5093372;28;20048;-89
2022/07/03 03:48:38;;;;;;;2.00;1.05;;;;;;;13.30;100.00;100683.66;5088570;28;20065;-89
2022/07/03 03:51:07;;;;;;;4.93;0.90;;;;;;;12.88;100.00;100641.00;5111552;28;20135;-89
2022/07/03 03:53:34;;;;;;;2.85;0.80;;;;;;;13.11;100.00;100657.44;5097629;28;20047;-89
2022/07/03 03:56:03;;;;;;;2.80;1.00;;;;;;;13.34;100.00;100689.66;5103481;28;20131;-89
2022/07/03 03:58:32;;;;;;;2.20;0.95;;;;;;;13.34;100.00;100668.63;5080867;28;20051;-89
2022/07/03 04:01:01;;;;;;;1.70;0.85;;;;;;;13.43;100.00;100700.56;5097640;28;20054;-89
2022/07/03 04:03:29;;;;;;;1.13;0.80;;;;;;;13.22;100.00;100655.09;5114420;28;20146;-89
2022/07/03 04:05:56;;;;;;;2.47;1.02;;;;;;;13.61;100.00;100692.66;5087710;28;20058;-89
2022/07/03 04:08:25;;;;;;;0.95;0.70;;;;;;;13.53;100.00;100679.91;5078613;28;20051;-89
2022/07/03 04:10:52;;;;;;;2.22;1.00;;;;;;;13.63;100.00;100694.31;5097451;28;20054;-89
2022/07/03 04:13:20;;;;;;;3.58;0.90;;;;;;;13.58;100.00;100701.59;5114824;28;20058;-89
2022/07/03 04:15:47;;;;;;;1.25;0.70;;;;;;;13.41;100.00;100664.75;5117499;27;20470;-89
2022/07/03 04:18:14;;;;;;;2.15;0.70;;;;;;;13.63;100.00;100669.75;5088166;28;20047;-90
2022/07/03 04:20:42;;;;;;;0.70;0.70;;;;;;;13.64;100.00;100674.09;5092645;28;20055;-89
2022/07/03 04:23:09;;;;;;;1.27;0.70;;;;;;;13.50;100.00;100656.38;5093309;28;20050;-89
2022/07/03 04:25:36;;;;;;;2.45;0.90;;;;;;;13.69;100.00;100701.03;5082802;28;20078;-90
2022/07/03 04:28:03;;;;;;;0.85;0.70;;;;;;;13.44;100.00;100685.66;5097422;28;20052;-89
2022/07/03 04:30:47;;;;;;;1.42;0.80;;;;;;;13.09;100.00;100654.03;5099367;28;20050;-90
2022/07/03 04:33:14;;;;;;;3.05;0.80;;;;;;;13.48;100.00;100695.06;5095777;28;20054;-89
2022/07/03 04:35:41;;;;;;;1.95;0.90;;;;;;;13.27;100.00;100679.41;5096509;28;20138;-90
2022/07/03 04:38:07;;;;;;;1.58;0.80;;;;;;;13.32;100.00;100681.00;5088664;28;20056;-89
2022/07/03 04:40:34;;;;;;;2.55;0.90;;;;;;;13.56;100.00;100690.25;5090941;28;20069;-89
2022/07/03 04:43:01;;;;;;;1.85;0.90;;;;;;;13.65;100.00;100715.25;5085478;28;20044;-89
2022/07/03 04:45:28;;;;;;;1.75;0.90;;;;;;;13.37;100.00;100671.06;5089826;28;20055;-89
2022/07/03 04:47:55;;;;;;;1.08;0.73;;;;;;;13.29;100.00;100677.53;5096984;28;20047;-89
2022/07/03 04:50:21;;;;;;;2.30;0.90;;;;;;;13.04;100.00;100677.91;5107968;28;20054;-90
2022/07/03 04:52:48;;;;;;;1.58;0.80;;;;;;;13.02;100.00;100692.91;5090289;28;20054;-89
2022/07/03 04:55:15;;;;;;;1.33;0.77;;;;;;;13.16;100.00;100701.91;5096196;28;20059;-89
2022/07/03 04:57:42;;;;;;;1.42;0.70;;;;;;;12.97;100.00;100665.16;5096467;28;20405;-90
2022/07/03 05:00:09;;;;;;;1.83;0.90;;;;;;;12.89;100.00;100663.75;5114893;28;20067;-89
2022/07/03 05:02:36;;;;;;;2.13;1.00;;;;;;;13.17;100.00;100700.97;5085737;28;20071;-90
2022/07/03 05:05:03;;;;;;;3.80;0.95;;;;;;;13.10;100.00;100703.91;5075489;28;20138;-89
2022/07/03 05:07:30;;;;;;;1.17;0.90;;;;;;;12.95;100.00;100712.53;5084277;28;20134;-89
2022/07/03 05:09:58;;;;;;;1.45;0.70;;;;;;;13.40;100.00;100736.69;5089766;28;20047;-89
2022/07/03 05:12:25;;;;;;;2.15;1.05;;;;;;;13.65;100.00;100747.69;5104855;28;20044;-89
2022/07/03 05:14:52;;;;;;;1.65;0.98;;;;;;;13.48;100.00;100700.34;5096253;28;20400;-90
2022/07/03 05:17:19;;;;;;;2.30;0.90;;;;;;;13.74;100.00;100714.81;5099597;28;20028;-89
2022/07/03 05:19:46;;;;;;;3.47;1.10;;;;;;;13.80;100.00;100718.91;5111614;28;20045;-88
2022/07/03 05:22:13;;;;;;;2.55;1.00;;;;;;;13.95;100.00;100741.81;5104059;28;20062;-88
2022/07/03 05:24:41;;;;;;;2.35;0.80;;;;;;;13.78;100.00;100703.19;5127661;28;20067;-89
2022/07/03 05:27:07;;;;;;;3.05;0.82;;;;;;;13.96;100.00;100698.75;5109470;28;20538;-89
2022/07/03 05:29:39;;;;;;;3.13;1.00;;;;;;;14.69;100.00;100748.44;5119160;28;20047;-88
2022/07/03 05:32:09;;;;;;;2.92;0.93;;;;;;;15.48;100.00;100742.25;5104590;28;20107;-88
2022/07/03 05:34:35;;;;;;;2.45;0.90;;;;;;;15.52;100.00;100758.75;5109190;28;20067;-89
2022/07/03 05:37:03;;;;;;;1.85;0.90;;;;;;;14.94;100.00;100707.53;5109561;28;20116;-89
2022/07/03 05:39:32;;;;;;;1.63;0.80;;;;;;;15.40;100.00;100728.66;5109819;28;20077;-89
2022/07/03 05:42:01;;;;;;;1.25;0.80;;;;;;;15.64;100.00;100755.41;5121932;28;20362;-87
2022/07/03 05:44:28;;;;;;;2.33;0.80;;;;;;;15.50;100.00;100724.53;5094544;28;20118;-90
2022/07/03 05:46:56;;;;;;;1.63;0.80;;;;;;;15.86;100.00;100739.16;5108101;28;20079;-88
2022/07/03 05:49:23;;;;;;;1.52;0.80;;;;;;;15.51;100.00;100720.09;5094282;28;20051;-90
2022/07/03 05:51:50;;;;;;;2.08;0.90;;;;;;;16.08;100.00;100772.25;5108011;28;20070;-90
2022/07/03 05:54:17;;;;;;;1.25;0.75;;;;;;;15.85;100.00;100745.41;5108827;28;20122;-89
2022/07/03 05:56:44;;;;;;;2.88;0.77;;;;;;;15.87;100.00;100775.22;5126471;28;20044;-89
2022/07/03 05:59:11;;;;;;;1.08;0.60;;;;;;;16.05;100.00;100783.81;5108876;28;20107;-89
2022/07/03 06:01:41;;;;;;;1.08;0.63;;;;;;;15.82;100.00;100758.78;5108588;28;20107;-89
2022/07/03 06:04:08;;;;;;;1.17;0.60;;;;;;;15.60;100.00;100731.91;5090110;28;20059;-89
2022/07/03 06:06:35;;;;;;;2.22;0.70;;;;;;;15.31;100.00;100774.88;5104284;28;20110;-89
2022/07/03 06:09:02;;;;;;;1.75;0.85;;;;;;;15.23;100.00;100755.13;5110815;28;20119;-89
2022/07/03 06:11:30;;;;;;;1.95;0.98;;;;;;;15.55;100.00;100775.28;5128235;28;20059;-88
2022/07/03 06:13:58;;;;;;;1.10;0.70;;;;;;;15.64;100.00;100758.06;5128534;28;20051;-90
2022/07/03 06:16:35;;;;;;;1.85;0.90;;;;;;;15.15;100.00;100759.06;5111696;28;20051;-89
2022/07/03 06:19:03;;;;;;;1.98;0.82;;;;;;;15.02;100.00;100762.50;5113240;28;20054;-88
2022/07/03 06:21:30;;;;;;;1.52;0.80;;;;;;;15.14;100.00;100765.28;5100916;28;20067;-89
2022/07/03 06:23:58;;;;;;;2.00;0.80;;;;;;;15.19;100.00;100775.56;5117804;28;20111;-87
2022/07/03 06:26:25;;;;;;;2.33;0.90;;;;;;;15.06;100.00;100814.13;5109039;28;20055;-87
2022/07/03 06:28:52;;;;;;;3.10;1.15;;;;;;;14.76;100.00;100746.31;5108659;28;20071;-88
2022/07/03 06:31:19;;;;;;;3.40;1.05;;;;;;;15.07;100.00;100773.63;5108029;28;20074;-89
2022/07/03 06:33:46;;;;;;;2.17;0.80;;;;;;;15.06;100.00;100756.94;5108393;28;20048;-89
2022/07/03 06:36:14;;;;;;;2.10;0.80;;;;;;;15.28;100.00;100769.78;5107560;28;20051;-88
2022/07/03 06:38:42;;;;;;;2.13;0.98;;;;;;;15.33;100.00;100754.56;5125760;28;20048;-89
2022/07/03 06:41:09;;;;;;;1.50;0.90;;;;;;;15.36;100.00;100729.78;5091761;28;20047;-88
2022/07/03 06:43:36;;;;;;;2.40;0.90;;;;;;;15.61;100.00;100771.41;5107845;28;20048;-88
2022/07/03 06:46:03;;;;;;;4.38;1.00;;;;;;;15.11;100.00;100736.44;5107400;28;20082;-89
2022/07/03 06:48:30;;;;;;;3.88;1.08;;;;;;;15.37;100.00;100773.69;5106932;28;20067;-88
2022/07/03 06:50:57;;;;;;;2.80;0.95;;;;;;;15.17;100.00;100741.41;5089425;28;20075;-89
2022/07/03 06:53:24;;;;;;;1.73;0.80;;;;;;;15.51;100.00;100779.03;5104444;28;20130;-88
2022/07/03 06:55:51;;;;;;;2.17;0.90;;;;;;;15.79;100.00;100806.47;5094118;28;20497;-89
2022/07/03 06:58:17;;;;;;;2.65;0.90;;;;;;;16.25;100.00;100789.69;5100338;28;20111;-88
2022/07/03 07:00:44;;;;;;;0.90;0.60;;;;;;;16.54;100.00;100790.56;5122839;28;20150;-89
2022/07/03 07:03:11;;;;;;;0.85;0.60;;;;;;;16.73;100.00;100806.13;5106785;28;20054;-88
2022/07/03 07:05:38;;;;;;;1.77;0.80;;;;;;;16.37;100.00;100788.09;5101487;28;20074;-88
2022/07/03 07:08:05;;;;;;;1.95;0.70;;;;;;;16.49;100.00;100793.47;5097083;28;20101;-87
2022/07/03 07:10:32;;;;;;;3.47;0.90;;;;;;;16.47;100.00;100805.09;5103964;28;20546;-88
2022/07/03 07:12:59;;;;;;;1.30;0.80;;;;;;;16.35;100.00;100803.22;5103220;28;20171;-89
2022/07/03 07:15:26;;;;;;;3.58;0.98;;;;;;;16.74;100.00;100825.50;5122083;28;20107;-89
2022/07/03 07:17:53;;;;;;;0.88;0.70;;;;;;;16.98;100.00;100807.25;5103941;28;20107;-88
2022/07/03 07:20:20;;;;;;;0.95;0.70;;;;;;;17.24;100.00;100824.97;5119316;28;20115;-87
2022/07/03 07:22:46;;;;;;;0.95;0.68;;;;;;;16.88;100.00;100791.97;5114264;28;20115;-88
2022/07/03 07:25:13;;;;;;;1.02;0.70;;;;;;;17.33;100.00;100794.41;5102993;28;20138;-89
2022/07/03 07:27:40;;;;;;;0.68;0.68;;;;;;;17.64;100.00;100813.59;5096216;28;20114;-89
2022/07/03 07:30:08;;;;;;;2.05;0.80;;;;;;;17.36;100.00;100803.97;5085370;28;20119;-89
2022/07/03 07:32:34;;;;;;;2.67;0.80;;;;;;;17.56;100.00;100803.50;5103632;28;20462;-88
2022/07/03 07:35:01;;;;;;;1.20;0.68;;;;;;;17.40;100.00;100793.06;5102127;28;20082;-88
2022/07/03 07:37:28;;;;;;;0.88;0.68;;;;;;;17.14;100.00;100813.28;5088193;28;20804;-88
2022/07/03 07:39:56;;;;;;;2.83;0.73;;;;;;;16.95;100.00;100805.66;5101281;28;20071;-89
2022/07/03 07:42:24;;;;;;;2.25;0.80;;;;;;;17.40;100.00;100800.16;5101418;28;20050;-88
2022/07/03 07:44:51;;;;;;;2.70;0.70;;;;;;;17.75;100.00;100802.28;5093894;28;20044;-88
2022/07/03 07:47:18;;;;;;;0.88;0.60;;;;;;;18.55;100.00;100820.72;5113485;28;20047;-89
2022/07/03 07:49:45;;;;;;;3.50;1.02;;;;;;;18.83;100.00;100817.00;5087293;28;20058;-89
2022/07/03 07:52:12;;;;;;;2.47;0.85;;;;;;;19.01;100.00;100838.72;5102827;28;20059;-88
2022/07/03 07:54:39;;;;;;;2.53;0.80;;;;;;;19.02;100.00;100816.53;5122961;28;20078;-89
2022/07/03 07:57:06;;;;;;;7.13;0.93;;;;;;;19.37;100.00;100797.22;5097984;28;20146;-88
2022/07/03 07:59:32;;;;;;;1.88;0.73;;;;;;;19.76;100.00;100818.28;5115575;28;20158;-90
2022/07/03 08:07:35;;;;;;;3.20;0.80;;;;;;;21.74;100.00;100820.44;5110363;28;20135;-90
2022/07/03 08:10:03;;;;;;;0.75;0.57;;;;;;;20.97;100.00;100845.31;5104613;28;20055;-87
2022/07/03 08:12:30;;;;;;;2.35;0.60;;;;;;;21.52;87.44;100792.94;5104099;28;20040;-89
2022/07/03 08:14:57;;;;;;;1.55;0.50;;;;;;;21.17;88.00;100851.72;5104057;28;20047;-89
2022/07/03 08:17:23;;;;;;;1.50;0.60;;;;;;;20.30;94.88;100815.88;5104104;28;20074;-89
2022/07/03 08:19:50;;;;;;;0.75;0.50;;;;;;;21.02;100.00;100837.81;5104580;28;20062;-89
2022/07/03 08:22:17;;;;;;;0.70;0.50;;;;;;;21.10;97.77;100854.00;5120709;28;20075;-88
2022/07/03 08:24:44;;;;;;;1.20;0.60;;;;;;;20.58;89.79;100807.56;5121737;28;20071;-89
2022/07/03 08:27:11;;;;;;;4.07;0.70;;;;;;;20.30;94.89;100831.84;5101499;28;20085;-89
2022/07/03 08:29:38;;;;;;;1.58;0.68;;;;;;;20.44;91.61;100793.53;5082645;28;20147;-90
2022/07/03 08:32:07;;;;;;;0.57;0.43;;;;;;;20.37;93.99;100812.75;5114401;28;20043;-89
2022/07/03 08:34:34;;;;;;;1.55;0.68;;;;;;;20.68;96.08;100856.44;5103501;28;20138;-89
2022/07/03 08:37:01;;;;;;;2.78;0.70;;;;;;;20.46;92.70;100825.34;5104009;28;20533;-89
2022/07/03 08:39:28;;;;;;;3.40;0.88;;;;;;;20.16;87.76;100832.03;5103300;28;20048;-90
2022/07/03 08:41:56;;;;;;;1.73;0.70;;;;;;;20.20;84.02;100860.13;5120862;28;20457;-88
2022/07/03 08:44:25;;;;;;;3.55;0.88;;;;;;;19.76;89.48;100824.47;5122509;28;20044;-89
2022/07/03 08:46:52;;;;;;;2.05;0.75;;;;;;;19.72;88.02;100820.28;5105627;28;20067;-88
2022/07/03 08:49:20;;;;;;;1.20;0.70;;;;;;;19.50;89.93;100811.25;5103328;28;20051;-90
2022/07/03 08:51:48;;;;;;;2.75;0.80;;;;;;;19.84;89.57;100840.66;5101072;28;20051;-90
2022/07/03 08:54:15;;;;;;;0.80;0.70;;;;;;;19.69;92.49;100809.91;5103225;28;20043;-89
2022/07/03 08:56:42;;;;;;;2.15;0.88;;;;;;;20.07;89.58;100833.59;5102319;28;20063;-88
2022/07/03 08:59:09;;;;;;;0.70;0.60;;;;;;;20.05;92.38;100835.53;5104743;28;20061;-89
2022/07/03 09:01:41;;;;;;;1.20;0.70;;;;;;;20.04;88.32;100827.66;5117648;28;20069;-89
2022/07/03 09:04:13;;;;;;;1.90;0.80;;;;;;;20.06;84.03;100828.38;5116714;28;20039;-88
2022/07/03 09:06:41;;;;;;;4.43;0.90;;;;;;;19.84;82.07;100861.06;5099128;28;20098;-88
2022/07/03 09:09:08;;;;;;;2.80;0.80;;;;;;;19.96;83.02;100867.28;5099062;28;20061;-88
2022/07/03 09:11:37;;;;;;;1.67;0.70;;;;;;;19.93;84.66;100863.03;5117747;28;20044;-89
2022/07/03 09:14:06;;;;;;;2.92;0.80;;;;;;;19.96;87.00;100832.72;5085461;28;20486;-88
2022/07/03 09:16:37;;;;;;;2.15;0.95;;;;;;;19.82;91.30;100826.63;5099781;28;20051;-89
2022/07/03 09:19:04;;;;;;;1.83;0.77;;;;;;;20.44;86.31;100840.56;5099016;28;20074;-89
2022/07/03 09:21:38;;;;;;;3.58;0.80;;;;;;;20.96;81.04;100854.28;5098642;28;20134;-87
2022/07/03 09:24:10;;;;;;;2.53;0.95;;;;;;;20.18;80.20;100811.50;5118605;28;20048;-88
2022/07/03 09:26:51;;;;;;;1.30;0.70;;;;;;;20.30;78.94;100826.50;5100804;28;20476;-89
2022/07/03 09:29:19;;;;;;;1.85;0.80;;;;;;;20.47;77.82;100819.06;5118055;28;20043;-87
2022/07/03 09:31:55;;;;;;;1.25;0.70;;;;;;;20.78;78.45;100867.22;5082765;28;20047;-88
2022/07/03 09:34:24;;;;;;;2.40;0.90;;;;;;;20.32;79.90;100852.97;5117707;28;20531;-89
2022/07/03 09:36:51;;;;;;;2.25;0.82;;;;;;;20.05;78.08;100819.56;5099577;28;20130;-88
2022/07/03 09:39:37;;;;;;;1.55;0.68;;;;;;;19.88;84.53;100871.34;5120585;28;20086;-87
2022/07/03 09:42:06;;;;;;;2.35;0.75;;;;;;;19.84;83.12;100874.34;5099687;28;20561;-88
2022/07/03 09:44:36;;;;;;;1.80;0.70;;;;;;;19.77;83.99;100873.94;5111883;28;20124;-88
2022/07/03 09:47:16;;;;;;;1.65;0.60;;;;;;;19.76;85.97;100844.84;5091568;28;20052;-87
2022/07/03 09:49:47;;;;;;;3.08;0.98;;;;;;;19.60;85.01;100845.09;5094255;28;20550;-87
2022/07/03 09:52:39;;;;;;;2.63;0.80;;;;;;;19.93;86.82;100855.06;5088268;28;20094;-87
2022/07/03 09:55:08;;;;;;;1.90;0.70;;;;;;;20.23;87.94;100867.81;5088112;28;20127;-88
2022/07/03 09:57:41;;;;;;;1.55;0.63;;;;;;;20.02;85.48;100822.47;5099504;28;20083;-88
2022/07/03 10:00:21;;;;;;;2.85;0.70;;;;;;;20.51;81.74;100873.69;5103566;28;20114;-88
2022/07/03 10:02:55;;;;;;;1.15;0.73;;;;;;;20.89;76.85;100834.44;5098406;28;20043;-87
2022/07/03 10:05:25;;;;;;;2.78;1.05;;;;;;;20.81;75.67;100897.09;5098635;28;20055;-88
2022/07/03 10:07:55;;;;;;;1.40;0.55;;;;;;;20.94;75.62;100883.66;5101624;28;20052;-88
2022/07/03 10:10:24;;;;;;;1.42;0.68;;;;;;;21.27;79.30;100868.63;5085658;28;20044;-89
2022/07/03 10:12:52;;;;;;;2.90;0.80;;;;;;;20.25;77.20;100873.03;5112480;28;20054;-89
2022/07/03 10:15:21;;;;;;;3.15;0.73;;;;;;;20.15;87.40;100883.53;5080202;28;20048;-88
2022/07/03 10:17:50;;;;;;;1.27;0.60;;;;;;;20.25;86.78;100889.81;5094855;28;20513;-88
2022/07/03 10:20:34;;;;;;;2.67;0.60;;;;;;;20.55;100.00;100871.66;5094795;28;20052;-89
2022/07/03 10:23:02;;;;;;;1.98;0.80;;;;;;;20.01;100.00;100865.97;5093278;28;20043;-88
2022/07/03 10:25:33;;;;;;;3.25;0.82;;;;;;;19.78;100.00;100883.63;5096354;28;20618;-89
2022/07/03 10:28:01;;;;;;;2.53;0.80;;;;;;;19.46;100.00;100862.03;5091664;28;20052;-89
2022/07/03 10:30:28;;;;;;;4.25;0.80;;;;;;;19.23;100.00;100876.97;5089792;28;20051;-89
2022/07/03 10:32:55;;;;;;;2.47;0.80;;;;;;;19.07;100.00;100870.13;5093820;28;20119;-89
2022/07/03 10:35:34;;;;;;;1.17;0.60;;;;;;;19.25;100.00;100837.94;5094932;28;20093;-89
2022/07/03 10:38:00;;;;;;;2.72;0.90;;;;;;;19.07;100.00;100877.22;5074452;28;20058;-88
2022/07/03 10:46:23;;;;;;;1.02;0.60;;;;;;;19.46;100.00;100880.63;5037590;28;20067;-89
2022/07/03 10:49:10;;;;;;;3.72;0.80;;;;;;;19.81;100.00;100883.38;5087271;28;20478;-89
2022/07/03 10:51:55;;;;;;;2.03;0.75;;;;;;;19.82;100.00;100885.09;5108693;28;20040;-90
2022/07/03 10:54:48;;;;;;;1.42;0.70;;;;;;;20.00;100.00;100869.56;5094051;28;20052;-89
2022/07/03 10:57:17;;;;;;;1.70;0.75;;;;;;;19.66;100.00;100880.03;5093953;28;20047;-88
2022/07/03 10:59:44;;;;;;;1.85;0.73;;;;;;;19.66;100.00;100885.34;5094070;28;20055;-89
2022/07/03 11:02:21;;;;;;;2.35;0.88;;;;;;;19.25;100.00;100869.78;5092705;28;20050;-88
2022/07/03 11:05:00;;;;;;;4.32;0.88;;;;;;;19.44;100.00;100870.16;5079803;28;20180;-89
2022/07/03 11:07:31;;;;;;;2.22;0.80;;;;;;;20.06;100.00;100898.38;5078305;28;20059;-89
2022/07/03 11:10:10;;;;;;;1.98;0.93;;;;;;;20.30;100.00;100924.03;5088532;28;20075;-88
2022/07/03 11:12:55;;;;;;;5.30;1.02;;;;;;;19.20;100.00;100920.53;5092606;28;20142;-83
2022/07/03 11:15:52;;;;;;;6.70;0.90;;;;;;;18.74;100.00;100905.16;5109164;28;20083;-81
2022/07/03 11:18:25;;;;;;;1.38;0.77;;;;;;;18.90;100.00;100920.88;5074378;28;20055;-83
2022/07/03 11:20:52;;;;;;;6.40;1.02;;;;;;;18.36;100.00;100920.09;5080164;28;20048;-82
2022/07/03 11:23:28;;;;;;;2.70;0.70;;;;;;;18.48;100.00;100918.38;5092431;28;20048;-83
2022/07/03 11:26:01;;;;;;;0.85;0.60;;;;;;;18.03;100.00;100889.56;5079546;28;20067;-84
2022/07/03 11:28:30;;;;;;;1.50;0.70;;;;;;;18.24;100.00;100918.25;5102613;28;20044;-85
2022/07/03 11:31:13;;;;;;;4.05;0.80;;;;;;;17.96;100.00;100913.94;5097853;28;20668;-85
2022/07/03 11:33:53;;;;;;;1.95;0.70;;;;;;;17.81;100.00;100887.47;5109180;28;20046;-86
2022/07/03 11:36:25;;;;;;;4.03;1.00;;;;;;;17.74;100.00;100914.44;5085313;28;20040;-86
2022/07/03 11:38:54;;;;;;;1.38;0.68;;;;;;;18.16;100.00;100916.09;5097677;28;20052;-86
2022/07/03 11:41:22;;;;;;;1.95;0.70;;;;;;;18.47;100.00;100890.19;5097200;28;20048;-87
2022/07/03 11:43:51;;;;;;;3.00;0.70;;;;;;;18.22;100.00;100906.91;5097680;28;20479;-87
2022/07/03 11:46:25;;;;;;;4.13;0.98;;;;;;;18.74;100.00;100921.06;5097139;28;20048;-88